createdAt,value
2018-06-22T00:02:57.119Z,18.89
2018-06-22T00:12:52.806Z,18.77
2018-06-22T00:22:46.365Z,18.69
2018-06-22T00:32:45.346Z,18.82
2018-06-22T00:42:44.258Z,18.84
2018-06-22T00:52:42.346Z,18.87
2018-06-22T01:02:37.640Z,18.82
2018-06-22T01:12:34.252Z,18.69
2018-06-22T01:22:33.803Z,18.79
2018-06-22T01:32:31.742Z,18.71
2018-06-22T01:42:28.527Z,18.61
2018-06-22T01:52:22.445Z,18.58
2018-06-22T02:02:21.747Z,18.67
2018-06-22T02:12:19.201Z,18.61
2018-06-22T02:22:16.667Z,18.55
2018-06-22T02:32:15.435Z,18.35
2018-06-22T02:42:11.502Z,18.32
2018-06-22T02:52:09.652Z,18.37
2018-06-22T03:02:07.019Z,18.25
2018-06-22T03:12:03.188Z,18.29
2018-06-22T03:22:01.517Z,18.27
2018-06-22T03:31:58.881Z,18.29
2018-06-22T03:41:56.995Z,18.24
2018-06-22T03:51:54.278Z,17.92
2018-06-22T04:01:52.020Z,17.88
2018-06-22T04:11:51.169Z,17.53
2018-06-22T04:21:49.261Z,17.46
2018-06-22T04:31:45.399Z,17.35
2018-06-22T04:41:42.422Z,17.07
2018-06-22T04:51:41.475Z,16.85
2018-06-22T05:01:38.547Z,16.59
2018-06-22T05:11:34.126Z,16.48
2018-06-22T05:21:32.617Z,16.55
2018-06-22T05:31:30.280Z,16.34
2018-06-22T05:41:26.182Z,16.26
2018-06-22T05:51:23.182Z,16.16
2018-06-22T06:01:18.473Z,16.22
2018-06-22T06:10:59.053Z,16.12
2018-06-22T06:20:57.601Z,16.15
2018-06-22T06:30:55.183Z,15.92
2018-06-22T06:40:52.606Z,16.01
2018-06-22T06:50:51.373Z,15.82
2018-06-22T07:00:48.540Z,15.73
2018-06-22T07:10:45.826Z,15.59
2018-06-22T07:20:43.438Z,15.70
2018-06-22T07:30:42.077Z,15.66
2018-06-22T07:40:37.477Z,15.82
2018-06-22T07:50:33.850Z,15.94
2018-06-22T08:00:30.950Z,15.73
2018-06-22T08:10:27.049Z,15.89
2018-06-22T08:20:24.473Z,15.88
2018-06-22T08:30:21.525Z,15.94
2018-06-22T08:40:17.426Z,15.88
2018-06-22T08:50:15.924Z,15.82
2018-06-22T09:00:12.225Z,15.49
2018-06-22T09:10:07.509Z,15.42
2018-06-22T09:20:04.360Z,15.35
2018-06-22T09:30:03.120Z,15.42
2018-06-22T09:40:00.675Z,15.33
2018-06-22T09:49:57.008Z,15.52
2018-06-22T09:59:52.031Z,15.57
2018-06-22T10:09:49.090Z,16.03
2018-06-22T10:19:46.280Z,16.74
2018-06-22T10:29:41.718Z,17.20
2018-06-22T10:39:40.267Z,17.63
2018-06-22T10:49:36.681Z,18.03
2018-06-22T10:59:36.260Z,18.79
2018-06-22T11:09:31.453Z,18.98
2018-06-22T11:19:29.387Z,18.90
2018-06-22T11:29:27.556Z,19.14
2018-06-22T11:39:22.194Z,19.80
2018-06-22T11:49:19.716Z,21.39
2018-06-22T11:59:15.693Z,19.80
2018-06-22T12:09:03.446Z,20.75
2018-06-22T12:19:02.038Z,21.53
2018-06-22T12:28:57.092Z,22.22
2018-06-22T12:38:47.902Z,22.24
2018-06-22T12:48:47.033Z,23.33
2018-06-22T12:58:41.499Z,19.58
2018-06-22T13:08:35.422Z,18.95
2018-06-22T13:18:31.360Z,21.64
2018-06-22T13:28:29.540Z,20.10
2018-06-22T13:38:17.877Z,19.68
2018-06-22T13:48:07.841Z,22.20
2018-06-22T13:57:59.822Z,20.62
2018-06-22T14:07:54.445Z,20.08
2018-06-22T14:17:48.672Z,20.27
2018-06-22T14:27:43.016Z,21.01
2018-06-22T14:37:37.560Z,19.45
2018-06-22T14:47:30.789Z,19.73
2018-06-22T14:57:20.648Z,19.24
2018-06-22T15:07:03.987Z,20.16
2018-06-22T15:16:58.661Z,19.15
2018-06-22T15:26:54.720Z,18.90
2018-06-22T15:36:51.968Z,19.76
2018-06-22T15:46:47.770Z,19.43
2018-06-22T15:56:41.146Z,19.20
2018-06-22T16:06:33.906Z,18.74
2018-06-22T16:16:29.189Z,18.65
2018-06-22T16:26:26.422Z,18.49
2018-06-22T16:36:21.036Z,17.96
2018-06-22T16:46:05.251Z,17.58
2018-06-22T16:56:01.816Z,17.36
2018-06-22T17:05:56.483Z,17.48
2018-06-22T17:15:38.241Z,17.66
2018-06-22T17:25:25.813Z,17.38
2018-06-22T17:35:12.477Z,17.18
2018-06-22T17:44:53.426Z,16.88
2018-06-22T17:54:44.682Z,16.70
2018-06-22T18:04:41.561Z,16.12
2018-06-22T18:14:35.014Z,16.08
2018-06-22T18:24:28.901Z,15.59
2018-06-22T18:34:22.025Z,15.71
2018-06-22T18:44:14.332Z,15.28
2018-06-22T18:54:05.899Z,14.83
2018-06-22T19:03:57.940Z,14.88
2018-06-22T19:13:48.565Z,14.83
2018-06-22T19:23:41.815Z,14.54
2018-06-22T19:33:33.778Z,14.17
2018-06-22T19:43:25.954Z,13.83
2018-06-22T19:53:14.721Z,13.86
2018-06-22T20:03:09.472Z,13.78
2018-06-22T20:13:02.679Z,13.53
2018-06-22T20:22:56.817Z,13.11
2018-06-22T20:32:50.546Z,12.91
2018-06-22T20:42:37.704Z,12.71
2018-06-22T20:52:31.084Z,12.42
2018-06-22T21:02:23.697Z,12.23
2018-06-22T21:12:26.251Z,12.00
2018-06-22T21:22:02.940Z,12.11
2018-06-22T21:31:54.716Z,11.97
2018-06-22T21:41:49.608Z,12.08
2018-06-22T21:51:45.126Z,12.16
2018-06-22T22:01:39.306Z,12.46
2018-06-22T22:11:36.593Z,12.53
2018-06-22T22:21:33.444Z,12.66
2018-06-22T22:31:29.283Z,11.94
2018-06-22T22:41:23.753Z,11.49
2018-06-22T22:51:18.680Z,11.41
2018-06-22T23:01:16.039Z,11.05
2018-06-22T23:11:10.721Z,11.34
2018-06-22T23:21:08.590Z,12.00
2018-06-22T23:31:04.378Z,11.97
2018-06-22T23:41:00.848Z,11.46
2018-06-22T23:50:57.095Z,11.20
